createdAt,value
2023-05-19T00:00:28.748Z,4.67
2023-05-19T00:02:51.264Z,5.07
2023-05-19T00:05:15.215Z,3.80
2023-05-19T00:07:38.903Z,4.10
2023-05-19T00:10:01.558Z,4.50
2023-05-19T00:12:24.090Z,3.90
2023-05-19T00:14:46.470Z,5.03
2023-05-19T00:17:08.960Z,4.13
2023-05-19T00:19:32.425Z,4.70
2023-05-19T00:21:54.831Z,4.50
2023-05-19T00:24:17.088Z,4.97
2023-05-19T00:26:39.622Z,4.90
2023-05-19T00:29:02.326Z,5.17
2023-05-19T00:31:24.767Z,4.73
2023-05-19T00:33:47.041Z,4.50
2023-05-19T00:36:09.404Z,4.60
2023-05-19T00:38:32.291Z,4.57
2023-05-19T00:40:54.538Z,5.07
2023-05-19T00:43:16.893Z,4.77
2023-05-19T00:45:39.263Z,4.83
2023-05-19T00:48:01.662Z,4.93
2023-05-19T00:50:24.382Z,5.20
2023-05-19T00:52:46.709Z,5.00
2023-05-19T00:55:09.830Z,4.70
2023-05-19T00:57:33.002Z,5.23
2023-05-19T00:59:56.506Z,4.90
2023-05-19T01:02:18.834Z,4.50
2023-05-19T01:04:41.739Z,4.37
2023-05-19T01:07:04.723Z,5.27
2023-05-19T01:09:27.016Z,4.50
2023-05-19T01:11:49.919Z,4.03
2023-05-19T01:14:12.406Z,4.70
2023-05-19T01:16:40.722Z,4.53
2023-05-19T01:19:03.810Z,5.30
2023-05-19T01:21:45.018Z,4.50
2023-05-19T01:24:22.907Z,4.20
2023-05-19T01:26:57.994Z,4.10
2023-05-19T01:29:39.216Z,3.93
2023-05-19T01:32:01.806Z,4.20
2023-05-19T01:34:24.210Z,4.57
2023-05-19T01:36:49.320Z,4.60
2023-05-19T01:39:11.994Z,5.03
2023-05-19T01:41:34.963Z,4.70
2023-05-19T01:43:57.899Z,4.17
2023-05-19T01:46:20.394Z,4.70
2023-05-19T01:48:47.572Z,4.23
2023-05-19T01:51:09.821Z,5.03
2023-05-19T01:53:32.091Z,4.30
2023-05-19T01:55:57.268Z,4.63
2023-05-19T01:58:35.034Z,4.70
2023-05-19T02:01:26.338Z,4.50
2023-05-19T02:03:54.451Z,4.70
2023-05-19T02:06:16.801Z,4.23
2023-05-19T02:08:39.046Z,4.50
2023-05-19T02:11:08.378Z,4.47
2023-05-19T02:13:32.007Z,4.80
2023-05-19T02:15:55.753Z,4.53
2023-05-19T02:18:20.307Z,4.20
2023-05-19T02:20:46.494Z,4.33
2023-05-19T02:23:08.799Z,4.47
2023-05-19T02:25:31.608Z,4.63
2023-05-19T02:27:55.874Z,4.40
2023-05-19T02:30:18.116Z,4.50
2023-05-19T02:32:40.618Z,4.57
2023-05-19T02:35:03.958Z,4.50
2023-05-19T02:37:28.534Z,4.17
2023-05-19T02:39:51.167Z,4.30
2023-05-19T02:42:14.732Z,4.77
2023-05-19T02:44:37.508Z,4.13
2023-05-19T02:46:59.764Z,4.80
2023-05-19T02:49:22.039Z,4.87
2023-05-19T02:51:44.302Z,4.90
2023-05-19T02:54:07.077Z,4.40
2023-05-19T02:56:29.342Z,4.10
2023-05-19T02:58:52.721Z,4.40
2023-05-19T03:01:16.679Z,4.70
2023-05-19T03:03:39.171Z,4.40
2023-05-19T03:06:01.932Z,4.20
2023-05-19T03:08:24.229Z,4.30
2023-05-19T03:10:47.112Z,4.23
2023-05-19T03:13:09.402Z,4.20
2023-05-19T03:15:32.422Z,3.87
2023-05-19T03:17:54.786Z,3.97
2023-05-19T03:20:17.242Z,4.10
2023-05-19T03:22:39.520Z,4.07
2023-05-19T03:25:01.838Z,3.83
2023-05-19T03:27:24.185Z,4.60
2023-05-19T03:29:46.498Z,4.53
2023-05-19T03:32:09.847Z,4.03
2023-05-19T03:34:33.859Z,4.20
2023-05-19T03:36:56.180Z,4.27
2023-05-19T03:39:18.916Z,4.10
2023-05-19T03:41:43.934Z,4.47
2023-05-19T03:44:06.293Z,4.30
2023-05-19T03:46:28.715Z,4.70
2023-05-19T03:49:09.429Z,4.50
2023-05-19T03:51:51.969Z,4.53
2023-05-19T03:54:22.536Z,4.40
2023-05-19T03:56:44.794Z,4.77
2023-05-19T03:59:07.300Z,4.30
2023-05-19T04:01:29.650Z,4.27
2023-05-19T04:03:53.306Z,3.97
2023-05-19T04:06:15.603Z,3.73
2023-05-19T04:08:37.846Z,4.63
2023-05-19T04:11:00.319Z,4.60
2023-05-19T04:13:22.619Z,4.53
2023-05-19T04:15:44.958Z,4.17
2023-05-19T04:18:07.250Z,4.23
2023-05-19T04:20:29.684Z,3.77
2023-05-19T04:22:51.976Z,3.67
2023-05-19T04:25:14.460Z,3.80
2023-05-19T04:27:38.860Z,3.70
2023-05-19T04:30:01.905Z,3.47
2023-05-19T04:32:24.759Z,3.23
2023-05-19T04:34:49.391Z,3.27
2023-05-19T04:37:17.964Z,2.33
2023-05-19T04:39:45.501Z,2.73
2023-05-19T04:42:10.026Z,2.63
2023-05-19T04:44:33.768Z,1.90
2023-05-19T04:46:58.245Z,1.60
2023-05-19T04:49:21.209Z,2.03
2023-05-19T04:51:46.264Z,2.00
2023-05-19T04:54:18.962Z,2.00
2023-05-19T04:56:42.044Z,1.90
2023-05-19T04:59:04.757Z,1.80
2023-05-19T05:01:28.220Z,1.65
2023-05-19T05:03:51.366Z,2.17
2023-05-19T05:06:13.952Z,1.70
2023-05-19T05:08:40.174Z,1.75
2023-05-19T05:11:12.616Z,1.90
2023-05-19T05:13:35.327Z,1.90
2023-05-19T05:15:58.513Z,1.83
2023-05-19T05:18:21.591Z,1.58
2023-05-19T05:20:44.500Z,1.60
2023-05-19T05:23:09.534Z,1.45
2023-05-19T05:25:33.090Z,1.70
2023-05-19T05:27:55.780Z,1.08
2023-05-19T05:30:19.048Z,1.10
2023-05-19T05:32:41.990Z,1.20
2023-05-19T05:35:12.675Z,1.50
2023-05-19T05:37:35.722Z,1.55
2023-05-19T05:39:58.096Z,1.38
2023-05-19T05:42:20.761Z,1.25
2023-05-19T05:44:46.802Z,1.60
2023-05-19T05:47:09.714Z,1.60
2023-05-19T05:49:32.232Z,1.45
2023-05-19T05:54:24.928Z,1.42
2023-05-19T05:56:48.925Z,1.02
2023-05-19T05:59:11.324Z,1.10
2023-05-19T06:01:35.700Z,1.48
2023-05-19T06:04:00.224Z,1.40
2023-05-19T06:06:22.538Z,1.35
2023-05-19T06:08:45.673Z,1.48
2023-05-19T06:11:09.521Z,1.10
2023-05-19T06:13:33.880Z,1.10
2023-05-19T06:15:56.847Z,1.40
2023-05-19T06:18:23.665Z,1.20
2023-05-19T06:20:48.569Z,1.60
2023-05-19T06:23:11.025Z,1.33
2023-05-19T06:25:36.339Z,1.92
2023-05-19T06:27:59.194Z,1.55
2023-05-19T06:30:22.680Z,1.50
2023-05-19T06:36:12.081Z,1.83
2023-05-19T06:41:19.990Z,1.13
2023-05-19T06:44:04.885Z,1.35
2023-05-19T06:46:29.586Z,1.35
2023-05-19T06:49:17.757Z,1.50
2023-05-19T06:54:40.499Z,1.35
2023-05-19T06:57:06.485Z,1.70
2023-05-19T06:59:29.269Z,1.70
2023-05-19T07:01:52.093Z,1.30
2023-05-19T07:04:18.355Z,1.50
2023-05-19T07:06:41.056Z,1.25
2023-05-19T07:09:24.675Z,1.30
2023-05-19T07:14:51.721Z,1.30
2023-05-19T07:17:14.880Z,1.48
2023-05-19T07:19:39.874Z,1.50
2023-05-19T07:22:02.194Z,1.80
2023-05-19T07:24:24.951Z,1.75
2023-05-19T07:26:47.324Z,1.42
2023-05-19T07:29:09.825Z,1.50
2023-05-19T07:31:32.331Z,1.85
2023-05-19T07:33:54.981Z,1.42
2023-05-19T07:36:17.430Z,1.92
2023-05-19T07:38:39.817Z,1.42
2023-05-19T07:41:02.523Z,1.55
2023-05-19T07:43:24.959Z,1.20
2023-05-19T07:45:47.456Z,1.45
2023-05-19T07:48:09.895Z,1.25
2023-05-19T07:50:33.090Z,1.30
2023-05-19T07:52:56.201Z,1.73
2023-05-19T07:55:19.253Z,1.33
2023-05-19T07:57:41.630Z,1.45
2023-05-19T08:00:09.977Z,1.40
2023-05-19T08:02:34.619Z,1.02
2023-05-19T08:04:57.028Z,1.60
2023-05-19T08:07:19.395Z,1.33
2023-05-19T08:09:41.710Z,1.13
2023-05-19T08:12:04.951Z,1.10
2023-05-19T08:14:27.957Z,1.30
2023-05-19T08:16:50.801Z,1.23
2023-05-19T08:19:13.087Z,1.40
2023-05-19T08:21:35.667Z,1.40
2023-05-19T08:23:57.985Z,1.52
2023-05-19T08:26:21.544Z,1.50
2023-05-19T08:28:44.312Z,1.70
2023-05-19T08:31:09.441Z,1.48
2023-05-19T08:33:31.759Z,1.40
2023-05-19T08:35:55.417Z,1.33
2023-05-19T08:38:17.781Z,1.70
2023-05-19T08:40:43.413Z,1.45
2023-05-19T08:43:05.893Z,1.88
2023-05-19T08:45:28.510Z,1.50
2023-05-19T08:47:52.187Z,1.50
2023-05-19T08:50:17.929Z,1.45
2023-05-19T08:53:28.957Z,1.70
2023-05-19T08:59:37.512Z,1.40
2023-05-19T09:02:35.841Z,1.55
2023-05-19T09:04:58.660Z,1.63
2023-05-19T09:08:00.128Z,1.23
2023-05-19T09:14:23.244Z,1.48
2023-05-19T09:16:52.390Z,1.75
2023-05-19T09:22:25.730Z,2.60
2023-05-19T09:32:22.532Z,1.38
2023-05-19T09:37:58.089Z,1.52
2023-05-19T09:40:28.770Z,1.63
2023-05-19T09:42:51.405Z,1.75
2023-05-19T09:45:14.130Z,1.63
2023-05-19T09:47:43.364Z,1.50
2023-05-19T09:50:16.664Z,1.27
2023-05-19T09:52:39.591Z,1.35
2023-05-19T09:55:09.843Z,1.52
2023-05-19T09:57:39.554Z,1.42
2023-05-19T10:00:08.542Z,1.35
2023-05-19T10:02:33.150Z,1.55
2023-05-19T10:10:38.527Z,1.70
2023-05-19T10:13:01.636Z,1.33
2023-05-19T10:18:19.049Z,1.58
2023-05-19T10:20:44.762Z,1.55
2023-05-19T10:23:07.212Z,1.42
2023-05-19T10:25:56.144Z,1.45
2023-05-19T10:28:21.318Z,1.60
2023-05-19T10:30:48.383Z,1.85
2023-05-19T10:36:26.869Z,1.42
2023-05-19T10:38:53.783Z,1.50
2023-05-19T10:41:31.859Z,1.30
2023-05-19T10:47:28.415Z,1.40
2023-05-19T10:49:52.805Z,1.67
2023-05-19T10:52:21.991Z,0.95
2023-05-19T10:54:47.554Z,1.30
2023-05-19T10:57:10.198Z,1.73
2023-05-19T10:59:33.771Z,1.30
2023-05-19T11:01:56.457Z,1.50
2023-05-19T11:04:19.920Z,1.42
2023-05-19T11:06:42.228Z,1.42
2023-05-19T11:09:12.427Z,1.80
2023-05-19T11:12:01.412Z,1.42
2023-05-19T11:14:27.712Z,1.33
2023-05-19T11:16:57.711Z,1.33
2023-05-19T11:19:23.943Z,1.40
2023-05-19T11:21:55.103Z,1.45
2023-05-19T11:24:36.621Z,1.45
2023-05-19T11:26:59.018Z,1.55
2023-05-19T11:29:22.071Z,1.42
2023-05-19T11:31:44.652Z,1.60
2023-05-19T11:34:14.165Z,1.60
2023-05-19T11:36:37.427Z,1.60
2023-05-19T11:39:00.708Z,2.03
2023-05-19T11:41:23.221Z,1.42
2023-05-19T11:43:48.002Z,1.30
2023-05-19T11:46:10.343Z,1.67
2023-05-19T11:48:32.788Z,1.52
2023-05-19T11:50:57.034Z,1.70
2023-05-19T11:53:20.082Z,1.60
2023-05-19T11:55:44.605Z,1.38
2023-05-19T11:58:07.330Z,1.77
2023-05-19T12:00:34.450Z,1.45
2023-05-19T12:02:58.489Z,1.48
2023-05-19T12:05:23.235Z,1.48
2023-05-19T12:07:45.654Z,1.10
2023-05-19T12:10:09.492Z,1.70
2023-05-19T12:12:32.038Z,1.33
2023-05-19T12:14:54.421Z,1.60
2023-05-19T12:17:17.657Z,1.33
2023-05-19T12:19:40.129Z,1.27
2023-05-19T12:22:04.064Z,1.50
2023-05-19T12:24:26.507Z,1.55
2023-05-19T12:26:50.269Z,1.23
2023-05-19T12:29:14.170Z,1.75
2023-05-19T12:31:37.813Z,1.60
2023-05-19T12:34:01.646Z,1.55
2023-05-19T12:36:25.296Z,1.15
2023-05-19T12:38:48.443Z,1.50
2023-05-19T12:41:14.659Z,1.20
2023-05-19T12:43:37.714Z,1.73
2023-05-19T12:46:09.835Z,1.40
2023-05-19T12:48:32.159Z,1.42
2023-05-19T12:50:55.450Z,1.80
2023-05-19T12:53:18.196Z,1.38
2023-05-19T12:55:44.025Z,1.45
2023-05-19T12:58:06.577Z,1.50
2023-05-19T13:00:31.281Z,1.65
2023-05-19T13:02:56.798Z,1.20
2023-05-19T13:05:19.165Z,1.45
2023-05-19T13:07:41.747Z,1.30
2023-05-19T13:10:04.193Z,1.45
2023-05-19T13:12:26.466Z,1.30
2023-05-19T13:14:48.746Z,1.42
2023-05-19T13:17:11.187Z,1.20
2023-05-19T13:19:33.798Z,1.75
2023-05-19T13:21:56.081Z,1.30
2023-05-19T13:24:18.403Z,1.25
2023-05-19T13:26:41.623Z,1.30
2023-05-19T13:29:04.248Z,1.30
2023-05-19T13:31:26.560Z,1.30
2023-05-19T13:33:48.952Z,1.30
2023-05-19T13:36:11.286Z,1.33
2023-05-19T13:38:33.545Z,1.20
2023-05-19T13:40:55.849Z,1.20
2023-05-19T13:43:18.173Z,1.10
2023-05-19T13:45:42.659Z,1.33
2023-05-19T13:48:07.133Z,1.35
2023-05-19T13:50:29.513Z,1.75
2023-05-19T13:52:52.003Z,1.25
2023-05-19T13:55:14.282Z,1.50
2023-05-19T13:57:36.970Z,1.55
2023-05-19T14:00:03.196Z,1.15
2023-05-19T14:02:36.188Z,1.48
2023-05-19T14:04:58.628Z,1.20
2023-05-19T14:07:21.275Z,1.05
2023-05-19T14:09:43.561Z,1.00
2023-05-19T14:12:06.380Z,1.35
2023-05-19T14:14:28.655Z,0.90
2023-05-19T14:16:51.047Z,1.50
2023-05-19T14:19:13.369Z,1.52
2023-05-19T14:21:36.832Z,1.17
2023-05-19T14:23:59.239Z,1.10
2023-05-19T14:26:21.886Z,0.95
2023-05-19T14:28:44.424Z,1.33
2023-05-19T14:31:07.038Z,1.40
2023-05-19T14:33:32.728Z,1.17
2023-05-19T14:35:59.985Z,1.35
2023-05-19T14:38:22.296Z,1.23
2023-05-19T14:40:45.285Z,1.30
2023-05-19T14:43:10.652Z,1.52
2023-05-19T14:45:32.979Z,1.38
2023-05-19T14:47:55.275Z,1.50
2023-05-19T14:50:17.631Z,1.25
2023-05-19T14:52:39.882Z,1.42
2023-05-19T14:55:05.110Z,1.70
2023-05-19T14:57:27.380Z,1.10
2023-05-19T14:59:49.639Z,1.20
2023-05-19T15:02:12.686Z,1.50
2023-05-19T15:04:35.158Z,1.00
2023-05-19T15:09:27.931Z,1.50
2023-05-19T15:11:50.524Z,1.42
2023-05-19T15:14:12.900Z,1.77
2023-05-19T15:16:35.216Z,1.52
2023-05-19T15:18:57.590Z,1.42
2023-05-19T15:21:19.921Z,1.23
2023-05-19T15:23:42.178Z,1.10
2023-05-19T15:26:04.565Z,1.23
2023-05-19T15:28:26.984Z,1.27
2023-05-19T15:30:49.265Z,1.05
2023-05-19T15:33:12.313Z,1.50
2023-05-19T15:35:34.749Z,1.27
2023-05-19T15:38:05.992Z,1.13
2023-05-19T15:40:28.415Z,1.23
2023-05-19T15:42:52.162Z,1.52
2023-05-19T15:45:39.251Z,1.27
2023-05-19T15:48:01.653Z,1.50
2023-05-19T15:50:26.179Z,1.70
2023-05-19T15:52:48.498Z,1.38
2023-05-19T15:55:11.331Z,1.10
2023-05-19T15:57:33.867Z,1.10
2023-05-19T15:59:56.185Z,1.38
2023-05-19T16:02:18.658Z,1.50
2023-05-19T16:04:43.368Z,1.45
2023-05-19T16:07:05.830Z,1.20
2023-05-19T16:09:37.057Z,0.90
2023-05-19T16:11:59.521Z,1.10
2023-05-19T16:14:22.665Z,1.17
2023-05-19T16:16:45.192Z,1.45
2023-05-19T16:19:08.194Z,1.20
2023-05-19T16:21:32.294Z,1.13
2023-05-19T16:23:54.748Z,1.15
2023-05-19T16:26:17.331Z,1.42
2023-05-19T16:34:21.619Z,1.50
2023-05-19T16:39:29.532Z,1.30
2023-05-19T16:41:53.172Z,1.00
2023-05-19T16:44:16.856Z,1.23
2023-05-19T16:46:39.549Z,1.40
2023-05-19T16:49:02.035Z,1.25
2023-05-19T16:51:25.044Z,1.10
2023-05-19T16:53:47.483Z,1.48
2023-05-19T16:56:09.770Z,0.93
2023-05-19T16:58:32.096Z,1.17
2023-05-19T17:01:01.907Z,1.27
2023-05-19T17:03:24.496Z,1.10
2023-05-19T17:05:47.254Z,1.60
2023-05-19T17:08:10.251Z,1.42
2023-05-19T17:10:33.449Z,1.70
2023-05-19T17:12:59.464Z,1.30
2023-05-19T17:15:48.575Z,1.27
2023-05-19T17:18:12.577Z,1.42
2023-05-19T17:23:38.319Z,1.10
2023-05-19T17:26:02.123Z,1.30
2023-05-19T17:28:24.935Z,1.33
2023-05-19T17:30:47.771Z,1.40
2023-05-19T17:33:10.481Z,1.33
2023-05-19T17:35:34.059Z,1.40
2023-05-19T17:37:57.897Z,0.98
2023-05-19T17:43:29.176Z,1.30
2023-05-19T17:45:54.370Z,1.10
2023-05-19T17:48:43.239Z,1.58
2023-05-19T17:51:07.221Z,1.50
2023-05-19T17:53:29.980Z,1.33
2023-05-19T17:56:02.719Z,1.50
2023-05-19T17:58:25.802Z,1.58
2023-05-19T18:00:57.582Z,1.20
2023-05-19T18:03:29.879Z,1.50
2023-05-19T18:05:52.694Z,1.33
2023-05-19T18:08:16.795Z,1.00
2023-05-19T18:10:42.216Z,1.20
2023-05-19T18:13:05.075Z,1.48
2023-05-19T18:15:27.769Z,1.02
2023-05-19T18:18:37.489Z,1.15
2023-05-19T18:21:00.193Z,1.30
2023-05-19T18:23:22.635Z,1.40
2023-05-19T18:25:53.259Z,1.10
2023-05-19T18:31:01.888Z,1.90
2023-05-19T18:33:26.238Z,1.30
2023-05-19T18:35:50.307Z,1.42
2023-05-19T18:40:54.989Z,1.38
2023-05-19T18:43:20.819Z,1.65
2023-05-19T18:45:43.639Z,1.25
2023-05-19T18:48:08.182Z,1.60
2023-05-19T18:53:11.040Z,1.20
2023-05-19T18:55:33.588Z,1.20
2023-05-19T18:57:57.537Z,1.50
2023-05-19T19:00:20.163Z,1.20
2023-05-19T19:02:42.869Z,1.30
2023-05-19T19:05:09.496Z,1.30
2023-05-19T19:07:31.897Z,1.25
2023-05-19T19:09:54.507Z,1.20
2023-05-19T19:12:18.335Z,1.63
2023-05-19T19:14:42.493Z,1.25
2023-05-19T19:17:05.109Z,1.25
2023-05-19T19:19:29.883Z,1.25
2023-05-19T19:21:52.678Z,1.23
2023-05-19T19:24:15.859Z,1.75
2023-05-19T19:26:38.404Z,1.98
2023-05-19T19:31:37.309Z,1.35
2023-05-19T19:34:03.772Z,1.63
2023-05-19T19:36:35.997Z,1.23
2023-05-19T19:38:58.681Z,1.42
2023-05-19T19:41:21.262Z,1.60
2023-05-19T19:43:43.840Z,1.35
2023-05-19T19:46:08.239Z,1.38
2023-05-19T19:48:31.435Z,1.33
2023-05-19T19:50:54.890Z,1.38
2023-05-19T19:53:17.555Z,1.70
2023-05-19T19:55:41.339Z,2.00
2023-05-19T19:58:03.910Z,1.50
2023-05-19T20:00:26.850Z,1.55
2023-05-19T20:03:03.853Z,1.73
2023-05-19T20:05:27.916Z,1.80
2023-05-19T20:07:50.335Z,1.30
2023-05-19T20:10:15.907Z,1.50
2023-05-19T20:12:38.413Z,1.65
2023-05-19T20:15:01.079Z,1.35
2023-05-19T20:17:23.694Z,1.13
2023-05-19T20:19:46.197Z,1.55
2023-05-19T20:22:08.943Z,1.33
2023-05-19T20:24:31.689Z,1.42
2023-05-19T20:27:19.629Z,1.48
2023-05-19T20:29:43.380Z,1.38
2023-05-19T20:32:09.198Z,1.40
2023-05-19T20:34:32.147Z,1.67
2023-05-19T20:36:54.933Z,1.42
2023-05-19T20:39:20.691Z,1.30
2023-05-19T20:41:43.218Z,1.50
2023-05-19T20:44:08.522Z,1.45
2023-05-19T20:46:31.511Z,1.50
2023-05-19T20:51:32.776Z,1.52
2023-05-19T20:53:55.506Z,1.80
2023-05-19T20:56:44.162Z,1.23
2023-05-19T20:59:06.671Z,1.40
2023-05-19T21:01:30.143Z,1.70
2023-05-19T21:03:52.929Z,1.50
2023-05-19T21:06:15.272Z,1.73
2023-05-19T21:08:37.806Z,1.55
2023-05-19T21:11:00.462Z,1.65
2023-05-19T21:13:22.868Z,1.75
2023-05-19T21:15:45.289Z,1.48
2023-05-19T21:18:15.010Z,1.75
2023-05-19T21:20:57.665Z,1.92
2023-05-19T21:23:23.385Z,1.67
2023-05-19T21:25:48.516Z,1.50
2023-05-19T21:28:11.039Z,1.45
2023-05-19T21:30:34.065Z,2.00
2023-05-19T21:32:57.354Z,1.50
2023-05-19T21:35:20.352Z,1.75
2023-05-19T21:37:43.140Z,1.63
2023-05-19T21:40:05.745Z,1.63
2023-05-19T21:42:28.415Z,1.85
2023-05-19T21:44:51.115Z,1.85
2023-05-19T21:47:13.760Z,1.92
2023-05-19T21:49:36.183Z,1.58
2023-05-19T21:51:58.852Z,1.52
2023-05-19T21:54:21.194Z,1.55
2023-05-19T21:56:46.055Z,1.67
2023-05-19T21:59:31.672Z,1.60
2023-05-19T22:01:55.878Z,1.50
2023-05-19T22:04:18.951Z,1.80
2023-05-19T22:06:41.653Z,1.50
2023-05-19T22:09:13.390Z,1.52
2023-05-19T22:11:36.329Z,1.67
2023-05-19T22:13:59.138Z,1.70
2023-05-19T22:16:21.614Z,1.48
2023-05-19T22:18:52.729Z,1.60
2023-05-19T22:21:15.289Z,1.70
2023-05-19T22:23:37.973Z,1.60
2023-05-19T22:26:04.225Z,1.40
2023-05-19T22:28:27.213Z,1.58
2023-05-19T22:30:55.820Z,1.48
2023-05-19T22:33:18.362Z,1.70
2023-05-19T22:35:43.150Z,1.23
2023-05-19T22:38:07.540Z,1.55
2023-05-19T22:40:42.573Z,1.42
2023-05-19T22:43:05.729Z,1.52
2023-05-19T22:45:28.586Z,1.52
2023-05-19T22:47:51.350Z,1.60
2023-05-19T22:50:17.187Z,1.70
2023-05-19T22:53:24.876Z,1.40
2023-05-19T22:55:47.569Z,1.40
2023-05-19T22:58:10.075Z,1.45
2023-05-19T23:00:32.769Z,1.30
2023-05-19T23:06:28.232Z,1.52
2023-05-19T23:08:58.566Z,1.42
2023-05-19T23:11:23.942Z,1.63
2023-05-19T23:13:48.777Z,1.27
2023-05-19T23:16:29.831Z,1.50
2023-05-19T23:18:52.218Z,1.48
2023-05-19T23:21:36.757Z,1.63
2023-05-19T23:23:59.941Z,1.60
2023-05-19T23:26:22.416Z,1.52
2023-05-19T23:28:45.094Z,1.70
2023-05-19T23:31:07.610Z,1.48
2023-05-19T23:33:30.003Z,1.70
2023-05-19T23:35:52.380Z,1.30
2023-05-19T23:38:15.440Z,1.55
2023-05-19T23:40:37.714Z,1.55
2023-05-19T23:43:00.125Z,1.60
2023-05-19T23:45:22.868Z,1.58
2023-05-19T23:47:45.158Z,1.40
2023-05-19T23:50:07.746Z,1.67
2023-05-19T23:52:30.177Z,1.50
2023-05-19T23:54:52.528Z,1.60
2023-05-19T23:57:14.909Z,1.40
2023-05-19T23:59:37.219Z,1.87
